createdAt,value
2023-04-28T00:02:02.691Z,18.58
2023-04-28T00:04:30.166Z,16.85
2023-04-28T00:06:57.322Z,20.38
2023-04-28T00:09:24.320Z,16.80
2023-04-28T00:11:51.567Z,18.23
2023-04-28T00:14:18.860Z,17.08
2023-04-28T00:16:46.132Z,18.17
2023-04-28T00:19:13.365Z,20.90
2023-04-28T00:21:40.533Z,26.70
2023-04-28T00:24:07.604Z,22.35
2023-04-28T00:26:34.677Z,22.80
2023-04-28T00:29:01.670Z,16.83
2023-04-28T00:31:28.616Z,22.65
2023-04-28T00:33:55.646Z,24.77
2023-04-28T00:36:22.698Z,27.38
2023-04-28T00:38:49.754Z,20.73
2023-04-28T00:41:16.716Z,23.55
2023-04-28T00:43:48.358Z,27.05
2023-04-28T00:46:21.780Z,22.50
2023-04-28T00:48:50.057Z,25.30
2023-04-28T00:51:17.677Z,23.48
2023-04-28T00:53:45.697Z,20.48
2023-04-28T00:56:13.049Z,21.45
2023-04-28T00:58:40.509Z,28.65
2023-04-28T01:01:09.831Z,18.27
2023-04-28T01:03:39.190Z,19.17
2023-04-28T01:06:09.050Z,20.77
2023-04-28T01:08:38.788Z,22.00
2023-04-28T01:11:14.406Z,22.90
2023-04-28T01:13:57.472Z,22.70
2023-04-28T01:16:27.718Z,25.63
2023-04-28T01:18:55.891Z,22.30
2023-04-28T01:21:35.725Z,22.45
2023-04-28T01:26:59.721Z,22.80
2023-04-28T01:29:28.231Z,18.83
2023-04-28T01:31:55.602Z,18.48
2023-04-28T01:34:22.636Z,22.08
2023-04-28T01:36:49.649Z,24.55
2023-04-28T01:39:17.331Z,21.92
2023-04-28T01:41:44.345Z,29.02
2023-04-28T01:44:13.145Z,24.85
2023-04-28T01:46:41.093Z,21.33
2023-04-28T01:49:08.155Z,22.00
2023-04-28T01:51:35.156Z,22.92
2023-04-28T01:54:02.541Z,23.60
2023-04-28T01:56:30.527Z,29.98
2023-04-28T01:58:58.629Z,20.17
2023-04-28T02:01:26.090Z,26.00
2023-04-28T02:03:55.601Z,19.40
2023-04-28T02:06:23.840Z,21.63
2023-04-28T02:08:50.923Z,20.20
2023-04-28T02:11:18.049Z,25.33
2023-04-28T02:13:45.098Z,19.90
2023-04-28T02:16:12.239Z,28.13
2023-04-28T02:18:39.647Z,19.85
2023-04-28T02:21:13.152Z,31.00
2023-04-28T02:23:40.568Z,16.83
2023-04-28T02:26:07.650Z,17.80
2023-04-28T02:28:34.725Z,17.25
2023-04-28T02:31:09.714Z,18.35
2023-04-28T02:33:37.525Z,20.05
2023-04-28T02:36:06.183Z,13.35
2023-04-28T02:38:33.432Z,21.90
2023-04-28T02:41:05.182Z,21.60
2023-04-28T02:43:32.774Z,19.63
2023-04-28T02:46:00.315Z,13.75
2023-04-28T02:48:27.509Z,17.15
2023-04-28T02:50:54.592Z,12.23
2023-04-28T02:53:22.900Z,17.02
2023-04-28T02:55:50.686Z,16.42
2023-04-28T02:58:18.446Z,21.77
2023-04-28T03:00:46.690Z,25.52
2023-04-28T03:03:14.595Z,25.83
2023-04-28T03:05:41.864Z,22.25
2023-04-28T03:08:08.928Z,17.55
2023-04-28T03:10:36.126Z,16.17
2023-04-28T03:13:04.243Z,22.33
2023-04-28T03:15:31.258Z,21.33
2023-04-28T03:17:58.376Z,14.98
2023-04-28T03:20:25.485Z,19.00
2023-04-28T03:22:53.119Z,15.32
2023-04-28T03:25:20.108Z,25.48
2023-04-28T03:27:49.659Z,12.05
2023-04-28T03:30:16.777Z,19.33
2023-04-28T03:32:43.716Z,18.83
2023-04-28T03:35:10.971Z,15.15
2023-04-28T03:37:39.826Z,14.27
2023-04-28T03:40:07.552Z,18.80
2023-04-28T03:42:54.528Z,13.45
2023-04-28T03:45:35.250Z,18.63
2023-04-28T03:48:02.616Z,18.90
2023-04-28T03:50:29.828Z,17.77
2023-04-28T03:52:57.307Z,19.70
2023-04-28T03:55:26.238Z,21.58
2023-04-28T03:57:53.567Z,18.35
2023-04-28T04:00:20.536Z,20.52
2023-04-28T04:02:51.323Z,23.27
2023-04-28T04:05:18.674Z,19.75
2023-04-28T04:07:45.723Z,21.65
2023-04-28T04:10:13.220Z,20.25
2023-04-28T04:12:43.064Z,15.18
2023-04-28T04:15:10.259Z,17.65
2023-04-28T04:17:38.736Z,14.10
2023-04-28T04:20:06.927Z,19.08
2023-04-28T04:22:33.895Z,22.23
2023-04-28T04:25:00.934Z,18.42
2023-04-28T04:27:28.131Z,20.27
2023-04-28T04:29:56.265Z,15.55
2023-04-28T04:32:23.287Z,16.48
2023-04-28T04:34:50.354Z,17.27
2023-04-28T04:37:17.720Z,33.25
2023-04-28T04:39:58.235Z,23.88
2023-04-28T04:42:26.089Z,20.60
2023-04-28T04:45:08.839Z,15.90
2023-04-28T04:47:36.671Z,17.30
2023-04-28T04:50:04.003Z,25.20
2023-04-28T04:52:31.477Z,17.95
2023-04-28T04:54:58.635Z,18.38
2023-04-28T04:57:26.117Z,18.95
2023-04-28T05:00:08.056Z,13.15
2023-04-28T05:02:35.688Z,14.60
2023-04-28T05:05:16.896Z,16.48
2023-04-28T05:07:52.778Z,11.13
2023-04-28T05:10:21.696Z,18.02
2023-04-28T05:12:49.277Z,14.82
2023-04-28T05:15:18.291Z,15.82
2023-04-28T05:17:59.517Z,16.25
2023-04-28T05:20:37.253Z,19.45
2023-04-28T05:23:04.336Z,22.40
2023-04-28T05:25:32.136Z,15.57
2023-04-28T05:28:04.935Z,26.58
2023-04-28T05:30:32.084Z,25.67
2023-04-28T05:32:59.340Z,15.07
2023-04-28T05:35:27.554Z,15.52
2023-04-28T05:37:54.620Z,19.55
2023-04-28T05:40:21.804Z,21.80
2023-04-28T05:42:48.817Z,17.60
2023-04-28T05:45:15.990Z,22.90
2023-04-28T05:47:43.081Z,22.13
2023-04-28T05:50:10.772Z,24.88
2023-04-28T05:52:37.859Z,25.17
2023-04-28T05:55:05.078Z,16.33
2023-04-28T05:57:38.802Z,26.20
2023-04-28T06:00:13.407Z,22.52
2023-04-28T06:02:40.770Z,25.40
2023-04-28T06:05:10.059Z,21.17
2023-04-28T06:07:37.713Z,26.63
2023-04-28T06:10:06.074Z,18.10
2023-04-28T06:12:32.961Z,24.90
2023-04-28T06:15:01.214Z,23.58
2023-04-28T06:17:28.421Z,21.13
2023-04-28T06:19:55.922Z,22.13
2023-04-28T06:22:22.857Z,20.23
2023-04-28T06:24:49.829Z,26.85
2023-04-28T06:27:20.671Z,18.35
2023-04-28T06:29:49.573Z,17.73
2023-04-28T06:32:16.499Z,28.13
2023-04-28T06:34:43.611Z,26.02
2023-04-28T06:37:20.719Z,23.32
2023-04-28T06:39:48.220Z,21.05
2023-04-28T06:42:18.988Z,26.50
2023-04-28T06:44:53.303Z,26.52
2023-04-28T06:47:20.313Z,21.67
2023-04-28T06:49:50.154Z,24.13
2023-04-28T06:52:17.341Z,19.42
2023-04-28T06:54:44.300Z,18.33
2023-04-28T06:57:11.549Z,29.83
2023-04-28T06:59:38.548Z,25.05
2023-04-28T07:02:05.698Z,27.92
2023-04-28T07:04:32.737Z,26.58
2023-04-28T07:06:59.706Z,18.08
2023-04-28T07:09:26.680Z,24.38
2023-04-28T07:11:54.068Z,23.67
2023-04-28T07:14:21.177Z,20.17
2023-04-28T07:16:48.177Z,14.60
2023-04-28T07:19:15.321Z,27.65
2023-04-28T07:21:42.293Z,18.15
2023-04-28T07:24:09.287Z,15.57
2023-04-28T07:26:36.381Z,21.10
2023-04-28T07:29:03.350Z,11.80
2023-04-28T07:31:30.434Z,20.00
2023-04-28T07:33:57.375Z,13.00
2023-04-28T07:36:24.304Z,16.55
2023-04-28T07:38:51.376Z,21.52
2023-04-28T07:41:18.945Z,16.15
2023-04-28T07:43:45.936Z,19.27
2023-04-28T07:46:13.574Z,19.30
2023-04-28T07:48:40.706Z,17.30
2023-04-28T07:51:07.650Z,10.05
2023-04-28T07:53:35.314Z,13.18
2023-04-28T07:56:02.486Z,7.03
2023-04-28T07:58:29.514Z,12.18
2023-04-28T08:00:56.555Z,13.73
2023-04-28T08:03:23.684Z,17.35
2023-04-28T08:05:50.952Z,14.52
2023-04-28T08:08:18.473Z,8.45
2023-04-28T08:10:45.904Z,10.02
2023-04-28T08:13:13.058Z,12.68
2023-04-28T08:15:40.458Z,8.15
2023-04-28T08:18:07.719Z,9.93
2023-04-28T08:20:34.889Z,14.00
2023-04-28T08:23:01.805Z,16.52
2023-04-28T08:25:28.824Z,7.60
2023-04-28T08:27:57.459Z,10.93
2023-04-28T08:30:24.929Z,11.38
2023-04-28T08:32:51.911Z,13.20
2023-04-28T08:35:19.499Z,12.65
2023-04-28T08:37:49.516Z,9.40
2023-04-28T08:40:16.596Z,16.00
2023-04-28T08:42:46.031Z,7.82
2023-04-28T08:45:17.168Z,7.57
2023-04-28T08:47:49.682Z,5.75
2023-04-28T08:50:22.651Z,9.20
2023-04-28T08:52:52.849Z,13.33
2023-04-28T08:55:20.319Z,15.95
2023-04-28T08:57:51.567Z,22.23
2023-04-28T09:00:18.819Z,18.17
2023-04-28T09:02:45.876Z,11.90
2023-04-28T09:05:14.329Z,18.70
2023-04-28T09:07:41.736Z,10.48
2023-04-28T09:10:20.708Z,14.98
2023-04-28T09:12:49.486Z,18.15
2023-04-28T09:15:41.058Z,14.85
2023-04-28T09:18:08.670Z,14.48
2023-04-28T09:20:37.159Z,13.52
2023-04-28T09:23:17.703Z,14.18
2023-04-28T09:26:06.519Z,20.10
2023-04-28T09:28:35.222Z,20.58
2023-04-28T09:31:03.105Z,13.25
2023-04-28T09:33:37.148Z,16.30
2023-04-28T09:36:04.311Z,15.38
2023-04-28T09:38:31.359Z,14.23
2023-04-28T09:40:59.821Z,8.88
2023-04-28T09:43:31.730Z,9.13
2023-04-28T09:46:00.855Z,11.05
2023-04-28T09:48:29.113Z,17.75
2023-04-28T09:50:57.155Z,9.43
2023-04-28T09:53:24.836Z,26.20
2023-04-28T09:55:57.033Z,12.77
2023-04-28T09:58:26.022Z,16.98
2023-04-28T10:00:58.290Z,9.68
2023-04-28T10:03:29.571Z,15.77
2023-04-28T10:05:58.988Z,5.07
2023-04-28T10:08:28.406Z,6.85
2023-04-28T10:10:57.049Z,8.57
2023-04-28T10:13:24.498Z,8.43
2023-04-28T10:15:55.609Z,10.73
2023-04-28T10:18:24.569Z,7.63
2023-04-28T10:21:00.416Z,5.60
2023-04-28T10:23:52.116Z,7.93
2023-04-28T10:26:20.284Z,7.00
2023-04-28T10:28:52.318Z,11.00
2023-04-28T10:31:21.557Z,6.07
2023-04-28T10:33:49.622Z,7.18
2023-04-28T10:36:55.987Z,15.18
2023-04-28T10:39:23.348Z,5.32
2023-04-28T10:41:50.361Z,8.85
2023-04-28T10:44:29.166Z,7.78
2023-04-28T10:47:09.849Z,6.63
2023-04-28T10:49:55.145Z,13.48
2023-04-28T10:52:37.902Z,14.43
2023-04-28T10:55:36.964Z,7.97
2023-04-28T10:58:30.037Z,9.00
2023-04-28T11:01:24.873Z,6.80
2023-04-28T11:04:10.846Z,6.70
2023-04-28T11:07:07.947Z,17.73
2023-04-28T11:09:34.872Z,6.38
2023-04-28T11:12:06.029Z,7.82
2023-04-28T11:14:35.777Z,9.02
2023-04-28T11:17:13.704Z,8.57
2023-04-28T11:19:41.986Z,8.10
2023-04-28T11:22:23.743Z,5.00
2023-04-28T11:25:10.949Z,7.25
2023-04-28T11:27:37.901Z,4.65
2023-04-28T11:30:20.260Z,4.03
2023-04-28T11:32:50.570Z,7.60
2023-04-28T11:35:17.582Z,8.45
2023-04-28T11:37:44.557Z,7.22
2023-04-28T11:40:13.185Z,6.63
2023-04-28T11:42:49.345Z,4.13
2023-04-28T11:45:16.383Z,5.05
2023-04-28T11:47:43.514Z,8.95
2023-04-28T11:50:11.204Z,6.20
2023-04-28T11:52:50.851Z,7.32
2023-04-28T11:55:19.585Z,3.03
2023-04-28T11:57:46.801Z,5.50
2023-04-28T12:00:22.782Z,5.65
2023-04-28T12:02:50.075Z,3.72
2023-04-28T12:05:17.352Z,6.90
2023-04-28T12:07:45.725Z,3.80
2023-04-28T12:10:16.013Z,3.83
2023-04-28T12:12:50.847Z,22.98
2023-04-28T12:15:20.644Z,11.02
2023-04-28T12:17:48.818Z,4.70
2023-04-28T12:20:43.674Z,6.45
2023-04-28T12:23:10.702Z,7.20
2023-04-28T12:25:45.120Z,5.45
2023-04-28T12:28:12.539Z,3.53
2023-04-28T12:30:42.147Z,4.88
2023-04-28T12:33:29.175Z,6.55
2023-04-28T12:35:57.281Z,4.40
2023-04-28T12:38:25.146Z,1.95
2023-04-28T12:40:53.079Z,4.85
2023-04-28T12:43:23.217Z,6.22
2023-04-28T12:45:51.383Z,6.90
2023-04-28T12:48:18.601Z,4.55
2023-04-28T12:50:46.271Z,4.57
2023-04-28T12:53:13.183Z,3.70
2023-04-28T12:55:40.699Z,4.00
2023-04-28T12:58:11.415Z,3.55
2023-04-28T13:00:45.313Z,3.85
2023-04-28T13:03:12.413Z,8.43
2023-04-28T13:05:43.256Z,8.13
2023-04-28T13:08:10.342Z,6.78
2023-04-28T13:10:37.964Z,3.58
2023-04-28T13:13:05.587Z,5.15
2023-04-28T13:15:32.507Z,5.78
2023-04-28T13:18:00.328Z,3.90
2023-04-28T13:20:30.792Z,9.60
2023-04-28T13:22:57.815Z,6.28
2023-04-28T13:25:24.880Z,5.30
2023-04-28T13:27:52.084Z,5.80
2023-04-28T13:30:18.971Z,4.03
2023-04-28T13:32:45.995Z,10.82
2023-04-28T13:35:20.358Z,7.10
2023-04-28T13:37:47.268Z,4.93
2023-04-28T13:40:14.219Z,8.85
2023-04-28T13:42:41.374Z,2.58
2023-04-28T13:45:08.572Z,1.70
2023-04-28T13:47:35.674Z,6.65
2023-04-28T13:50:03.624Z,6.93
2023-04-28T13:52:30.970Z,5.60
2023-04-28T13:54:58.077Z,2.90
2023-04-28T13:57:34.981Z,5.38
2023-04-28T14:00:02.394Z,7.47
2023-04-28T14:02:35.101Z,3.75
2023-04-28T14:05:02.113Z,7.53
2023-04-28T14:07:29.030Z,8.35
2023-04-28T14:09:56.004Z,10.15
2023-04-28T14:12:22.903Z,10.40
2023-04-28T14:14:50.240Z,9.13
2023-04-28T14:17:17.387Z,5.53
2023-04-28T14:19:44.759Z,10.75
2023-04-28T14:22:12.052Z,7.72
2023-04-28T14:24:39.467Z,5.22
2023-04-28T14:27:07.543Z,6.50
2023-04-28T14:29:34.488Z,3.63
2023-04-28T14:32:01.657Z,5.38
2023-04-28T14:34:29.192Z,5.00
2023-04-28T14:36:56.327Z,11.07
2023-04-28T14:39:24.550Z,5.75
2023-04-28T14:41:51.580Z,3.95
2023-04-28T14:44:18.678Z,6.57
2023-04-28T14:46:45.702Z,6.35
2023-04-28T14:49:12.867Z,7.03
2023-04-28T14:51:40.060Z,5.28
2023-04-28T14:54:09.241Z,5.18
2023-04-28T14:56:36.209Z,6.43
2023-04-28T14:59:03.599Z,6.85
2023-04-28T15:01:31.000Z,4.18
2023-04-28T15:03:58.706Z,6.78
2023-04-28T15:06:26.289Z,4.95
2023-04-28T15:08:53.353Z,6.88
2023-04-28T15:11:20.287Z,11.60
2023-04-28T15:13:47.242Z,2.97
2023-04-28T15:16:14.555Z,7.47
2023-04-28T15:18:41.659Z,3.40
2023-04-28T15:21:08.841Z,2.88
2023-04-28T15:23:35.847Z,5.15
2023-04-28T15:26:03.714Z,9.43
2023-04-28T15:28:30.715Z,6.22
2023-04-28T15:30:57.637Z,5.07
2023-04-28T15:33:24.918Z,22.33
2023-04-28T15:35:51.896Z,6.13
2023-04-28T15:38:19.042Z,13.77
2023-04-28T15:40:46.342Z,6.20
2023-04-28T15:43:13.890Z,4.22
2023-04-28T15:45:44.174Z,11.35
2023-04-28T15:48:12.238Z,4.10
2023-04-28T15:50:40.199Z,3.80
2023-04-28T15:53:07.257Z,6.20
2023-04-28T15:55:34.374Z,6.60
2023-04-28T15:58:02.212Z,6.10
2023-04-28T16:00:29.220Z,3.55
2023-04-28T16:02:56.335Z,3.38
2023-04-28T16:05:23.531Z,4.18
2023-04-28T16:07:52.697Z,9.68
2023-04-28T16:10:19.703Z,6.85
2023-04-28T16:12:47.534Z,4.18
2023-04-28T16:15:14.922Z,7.35
2023-04-28T16:17:42.483Z,7.38
2023-04-28T16:20:10.584Z,9.57
2023-04-28T16:22:39.161Z,10.45
2023-04-28T16:25:07.100Z,9.85
2023-04-28T16:27:35.274Z,9.35
2023-04-28T16:30:02.557Z,6.00
2023-04-28T16:32:30.701Z,5.28
2023-04-28T16:34:58.139Z,9.70
2023-04-28T16:37:25.585Z,6.97
2023-04-28T16:39:52.862Z,5.70
2023-04-28T16:42:22.713Z,9.32
2023-04-28T16:44:52.433Z,3.63
2023-04-28T16:47:20.240Z,12.20
2023-04-28T16:49:48.115Z,3.85
2023-04-28T16:52:15.335Z,2.70
2023-04-28T16:54:42.264Z,15.15
2023-04-28T16:57:09.323Z,7.80
2023-04-28T16:59:36.379Z,21.55
2023-04-28T17:02:07.091Z,10.25
2023-04-28T17:04:34.751Z,7.88
2023-04-28T17:07:04.714Z,7.28
2023-04-28T17:09:33.378Z,9.38
2023-04-28T17:12:01.169Z,7.22
2023-04-28T17:14:28.356Z,4.88
2023-04-28T17:16:56.032Z,8.23
2023-04-28T17:19:23.848Z,8.60
2023-04-28T17:21:52.861Z,10.55
2023-04-28T17:24:19.976Z,7.75
2023-04-28T17:26:47.207Z,5.97
2023-04-28T17:29:14.249Z,6.85
2023-04-28T17:31:41.333Z,9.70
2023-04-28T17:34:08.432Z,9.40
2023-04-28T17:36:35.456Z,5.72
2023-04-28T17:39:04.662Z,6.38
2023-04-28T17:41:31.980Z,6.93
2023-04-28T17:43:59.059Z,3.70
2023-04-28T17:46:26.401Z,4.22
2023-04-28T17:48:53.446Z,8.07
2023-04-28T17:51:20.784Z,6.95
2023-04-28T17:53:48.948Z,8.68
2023-04-28T17:56:16.503Z,9.70
2023-04-28T17:58:43.572Z,9.13
2023-04-28T18:01:10.582Z,5.85
2023-04-28T18:03:38.968Z,9.13
2023-04-28T18:06:08.066Z,7.25
2023-04-28T18:08:36.876Z,7.18
2023-04-28T18:11:05.025Z,6.72
2023-04-28T18:13:32.990Z,5.82
2023-04-28T18:16:00.663Z,7.43
2023-04-28T18:18:29.833Z,10.40
2023-04-28T18:20:59.771Z,6.68
2023-04-28T18:23:27.542Z,8.13
2023-04-28T18:25:54.697Z,9.68
2023-04-28T18:28:21.797Z,6.22
2023-04-28T18:30:48.812Z,5.75
2023-04-28T18:33:19.460Z,9.10
2023-04-28T18:35:48.376Z,8.60
2023-04-28T18:38:15.502Z,9.18
2023-04-28T18:40:42.458Z,7.85
2023-04-28T18:43:12.158Z,5.82
2023-04-28T18:45:41.321Z,10.48
2023-04-28T18:48:10.918Z,7.80
2023-04-28T18:50:38.253Z,10.85
2023-04-28T18:53:05.484Z,10.25
2023-04-28T18:55:33.583Z,11.07
2023-04-28T18:58:02.213Z,7.53
2023-04-28T19:00:29.531Z,15.05
2023-04-28T19:02:56.898Z,9.95
2023-04-28T19:05:24.227Z,9.40
2023-04-28T19:07:51.126Z,10.70
2023-04-28T19:10:18.241Z,10.45
2023-04-28T19:12:45.235Z,10.00
2023-04-28T19:15:12.477Z,9.43
2023-04-28T19:17:39.718Z,10.38
2023-04-28T19:20:07.518Z,10.45
2023-04-28T19:22:44.523Z,7.63
2023-04-28T19:25:12.163Z,8.95
2023-04-28T19:27:40.917Z,8.40
2023-04-28T19:30:10.483Z,11.10
2023-04-28T19:32:37.938Z,8.60
2023-04-28T19:35:05.480Z,11.00
2023-04-28T19:37:34.268Z,8.77
2023-04-28T19:40:03.063Z,12.85
2023-04-28T19:42:30.749Z,5.80
2023-04-28T19:44:59.137Z,11.80
2023-04-28T19:47:27.456Z,7.10
2023-04-28T19:49:54.833Z,5.57
2023-04-28T19:52:22.884Z,7.70
2023-04-28T19:54:50.532Z,10.30
2023-04-28T19:57:18.902Z,9.50
2023-04-28T19:59:46.779Z,8.70
2023-04-28T20:02:18.457Z,11.10
2023-04-28T20:04:46.738Z,6.82
2023-04-28T20:07:14.220Z,7.53
2023-04-28T20:09:41.256Z,24.00
2023-04-28T20:12:09.440Z,15.65
2023-04-28T20:14:37.282Z,9.45
2023-04-28T20:17:05.204Z,8.05
2023-04-28T20:19:32.300Z,13.23
2023-04-28T20:22:01.957Z,4.57
2023-04-28T20:24:34.264Z,6.93
2023-04-28T20:27:04.956Z,11.38
2023-04-28T20:29:34.831Z,11.15
2023-04-28T20:32:02.722Z,10.65
2023-04-28T20:34:34.492Z,11.07
2023-04-28T20:37:03.613Z,8.15
2023-04-28T20:39:30.824Z,16.10
2023-04-28T20:41:59.808Z,12.65
2023-04-28T20:44:27.049Z,9.93
2023-04-28T20:46:54.090Z,15.90
2023-04-28T20:49:21.366Z,11.25
2023-04-28T20:51:48.458Z,11.50
2023-04-28T20:54:15.656Z,11.32
2023-04-28T20:56:43.157Z,11.05
2023-04-28T20:59:10.122Z,20.35
2023-04-28T21:01:37.272Z,11.52
2023-04-28T21:04:04.392Z,14.75
2023-04-28T21:06:31.402Z,17.25
2023-04-28T21:08:58.377Z,14.65
2023-04-28T21:11:25.365Z,20.63
2023-04-28T21:13:52.542Z,15.40
2023-04-28T21:16:21.469Z,7.35
2023-04-28T21:18:49.392Z,14.05
2023-04-28T21:21:17.287Z,20.10
2023-04-28T21:23:44.480Z,16.85
2023-04-28T21:26:11.779Z,16.88
2023-04-28T21:28:40.072Z,15.45
2023-04-28T21:31:07.321Z,7.95
2023-04-28T21:33:37.937Z,15.00
2023-04-28T21:36:09.339Z,14.63
2023-04-28T21:38:39.773Z,12.57
2023-04-28T21:41:12.505Z,12.02
2023-04-28T21:43:40.383Z,16.35
2023-04-28T21:46:07.446Z,11.50
2023-04-28T21:48:34.438Z,12.27
2023-04-28T21:51:01.472Z,6.80
2023-04-28T21:53:29.020Z,6.25
2023-04-28T21:55:56.029Z,13.05
2023-04-28T21:58:22.986Z,11.20
2023-04-28T22:00:50.028Z,9.13
2023-04-28T22:03:17.218Z,7.72
2023-04-28T22:05:45.161Z,13.80
2023-04-28T22:08:17.155Z,9.88
2023-04-28T22:10:45.735Z,10.88
2023-04-28T22:13:13.511Z,13.60
2023-04-28T22:15:40.536Z,14.43
2023-04-28T22:18:08.389Z,8.95
2023-04-28T22:20:35.960Z,10.20
2023-04-28T22:23:03.065Z,12.18
2023-04-28T22:25:30.046Z,12.40
2023-04-28T22:27:56.983Z,11.75
2023-04-28T22:30:26.170Z,12.23
2023-04-28T22:32:53.673Z,8.57
2023-04-28T22:35:21.833Z,17.95
2023-04-28T22:37:48.837Z,10.55
2023-04-28T22:40:16.026Z,12.43
2023-04-28T22:42:43.660Z,14.90
2023-04-28T22:45:11.261Z,21.77
2023-04-28T22:47:40.876Z,8.63
2023-04-28T22:50:09.469Z,12.27
2023-04-28T22:52:36.950Z,14.38
2023-04-28T22:55:04.793Z,12.10
2023-04-28T22:57:31.804Z,14.68
2023-04-28T22:59:58.782Z,14.43
2023-04-28T23:02:25.912Z,11.65
2023-04-28T23:04:53.308Z,11.48
2023-04-28T23:07:20.778Z,9.57
2023-04-28T23:09:47.848Z,14.68
2023-04-28T23:12:14.874Z,17.05
2023-04-28T23:14:41.884Z,20.73
2023-04-28T23:17:08.933Z,13.15
2023-04-28T23:19:39.263Z,21.67
2023-04-28T23:22:08.015Z,16.85
2023-04-28T23:24:37.267Z,10.38
2023-04-28T23:27:04.810Z,9.68
2023-04-28T23:29:32.598Z,11.65
2023-04-28T23:31:59.759Z,11.60
2023-04-28T23:34:27.157Z,19.67
2023-04-28T23:36:54.282Z,22.48
2023-04-28T23:39:21.232Z,11.25
2023-04-28T23:41:49.486Z,16.85
2023-04-28T23:44:17.234Z,10.95
2023-04-28T23:46:44.237Z,15.50
2023-04-28T23:49:11.240Z,14.73
2023-04-28T23:51:38.320Z,13.93
2023-04-28T23:54:05.310Z,12.60
2023-04-28T23:56:32.218Z,8.32
2023-04-28T23:58:59.128Z,9.10
